Time;durP1;ratioP1;P1;durP2;ratioP2;P2;SDS_P1;SDS_P2;PMS_P1;PMS_P2;Temp;Humidity;BMP_temperature;BMP_pressure;BME280_temperature;BME280_humidity;BME280_pressure;Samples;Min_cycle;Max_cycle;Signal;HPM_P1;HPM_P2
2022/07/09 00:01:49;;;;;;;;;;;;;;;;;;5012753;28;19992;-74
2022/07/09 00:04:15;;;;;;;;;;;;;;;;;;5012704;28;20422;-74
2022/07/09 00:06:41;;;;;;;;;;;;;;;;;;5012375;28;19967;-73
2022/07/09 00:09:07;;;;;;;;;;;;;;;;;;5012735;28;19916;-74
2022/07/09 00:11:33;;;;;;;;;;;;;;;;;;5011503;28;20417;-74
2022/07/09 00:13:59;;;;;;;;;;;;;;;;;;5012439;28;19968;-74
2022/07/09 00:16:25;;;;;;;;;;;;;;;;;;5012621;28;19917;-74
2022/07/09 00:18:51;;;;;;;;;;;;;;;;;;5012602;28;20298;-74
2022/07/09 00:21:17;;;;;;;;;;;;;;;;;;5012792;28;19939;-74
2022/07/09 00:23:43;;;;;;;;;;;;;;;;;;5012821;28;19940;-74
2022/07/09 00:26:09;;;;;;;;;;;;;;;;;;5012995;28;20383;-74
2022/07/09 00:28:35;;;;;;;;;;;;;;;;;;5012102;28;19917;-74
2022/07/09 00:31:00;;;;;;;;;;;;;;;;;;5012402;28;19914;-74
2022/07/09 00:33:26;;;;;;;;;;;;;;;;;;5012562;28;20007;-74
2022/07/09 00:35:52;;;;;;;;;;;;;;;;;;5012776;28;19999;-74
2022/07/09 00:38:18;;;;;;;;;;;;;;;;;;5012798;28;20004;-74
2022/07/09 00:40:44;;;;;;;;;;;;;;;;;;5012412;28;20010;-73
2022/07/09 00:43:10;;;;;;;;;;;;;;;;;;5012094;28;19964;-74
2022/07/09 00:45:36;;;;;;;;;;;;;;;;;;5012456;28;19910;-73
2022/07/09 00:48:02;;;;;;;;;;;;;;;;;;5012687;28;19967;-74
2022/07/09 00:50:28;;;;;;;;;;;;;;;;;;5012911;28;19916;-74
2022/07/09 00:52:54;;;;;;;;;;;;;;;;;;5012599;28;19956;-74
2022/07/09 00:55:20;;;;;;;;;;;;;;;;;;5015017;28;19906;-74
2022/07/09 00:57:46;;;;;;;;;;;;;;;;;;5016381;28;20012;-74
2022/07/09 01:00:12;;;;;;;;;;;;;;;;;;5016389;28;19959;-74
2022/07/09 01:02:38;;;;;;;;;;;;;;;;;;5016461;28;19956;-74
2022/07/09 01:05:04;;;;;;;;;;;;;;;;;;5016228;28;19913;-74
2022/07/09 01:07:30;;;;;;;;;;;;;;;;;;5016391;28;19921;-74
2022/07/09 01:09:56;;;;;;;;;;;;;;;;;;5016623;28;19932;-74
2022/07/09 01:12:21;;;;;;;;;;;;;;;;;;5015978;28;19914;-74
2022/07/09 01:14:47;;;;;;;;;;;;;;;;;;5016149;28;19909;-74
2022/07/09 01:17:13;;;;;;;;;;;;;;;;;;5016068;28;19916;-73
2022/07/09 01:19:39;;;;;;;;;;;;;;;;;;5015753;28;19920;-74
2022/07/09 01:22:05;;;;;;;;;;;;;;;;;;5015902;28;20007;-74
2022/07/09 01:24:31;;;;;;;;;;;;;;;;;;5016009;28;20001;-74
2022/07/09 01:26:57;;;;;;;;;;;;;;;;;;5015789;28;19940;-74
2022/07/09 01:29:23;;;;;;;;;;;;;;;;;;5015730;28;19964;-73
2022/07/09 01:31:49;;;;;;;;;;;;;;;;;;5015903;28;20000;-74
2022/07/09 01:34:15;;;;;;;;;;;;;;;;;;5015654;28;20005;-74
2022/07/09 01:36:41;;;;;;;;;;;;;;;;;;5016372;28;19909;-74
2022/07/09 01:39:07;;;;;;;;;;;;;;;;;;5015612;28;19905;-74
2022/07/09 01:41:33;;;;;;;;;;;;;;;;;;5015201;28;19922;-74
2022/07/09 01:43:59;;;;;;;;;;;;;;;;;;5015577;28;19922;-74
2022/07/09 01:46:25;;;;;;;;;;;;;;;;;;5015942;28;19913;-75
2022/07/09 01:48:51;;;;;;;;;;;;;;;;;;5015811;28;19909;-74
2022/07/09 01:51:17;;;;;;;;;;;;;;;;;;5015497;28;19963;-74
2022/07/09 01:53:43;;;;;;;;;;;;;;;;;;5015290;28;19917;-74
2022/07/09 01:56:09;;;;;;;;;;;;;;;;;;5015345;28;19951;-74
2022/07/09 01:58:34;;;;;;;;;;;;;;;;;;5015612;28;19910;-75
2022/07/09 02:01:00;;;;;;;;;;;;;;;;;;5014964;28;20370;-75
2022/07/09 02:03:26;;;;;;;;;;;;;;;;;;5015322;28;19921;-74
2022/07/09 02:05:52;;;;;;;;;;;;;;;;;;5015041;28;19964;-75
2022/07/09 02:08:18;;;;;;;;;;;;;;;;;;5014659;28;19932;-75
2022/07/09 02:10:45;;;;;;;;;;;;;;;;;;5015047;28;20294;-74
2022/07/09 02:13:12;;;;;;;;;;;;;;;;;;5015067;28;19910;-74
2022/07/09 02:15:37;;;;;;;;;;;;;;;;;;5015558;28;19909;-74
2022/07/09 02:18:04;;;;;;;;;;;;;;;;;;5015161;28;20274;-74
2022/07/09 02:20:30;;;;;;;;;;;;;;;;;;5014605;28;19913;-74
2022/07/09 02:22:56;;;;;;;;;;;;;;;;;;5015114;28;19924;-75
2022/07/09 02:25:22;;;;;;;;;;;;;;;;;;5014992;28;20012;-75
2022/07/09 02:27:48;;;;;;;;;;;;;;;;;;5014946;28;19964;-75
2022/07/09 02:30:14;;;;;;;;;;;;;;;;;;5014562;28;19909;-76
2022/07/09 02:32:40;;;;;;;;;;;;;;;;;;5014950;28;19920;-75
2022/07/09 02:35:05;;;;;;;;;;;;;;;;;;5014699;28;19909;-75
2022/07/09 02:37:32;;;;;;;;;;;;;;;;;;5014302;28;19914;-75
2022/07/09 02:39:58;;;;;;;;;;;;;;;;;;5014306;28;20028;-75
2022/07/09 02:42:23;;;;;;;;;;;;;;;;;;5015016;28;20004;-74
2022/07/09 02:44:49;;;;;;;;;;;;;;;;;;5014775;28;20389;-75
2022/07/09 02:47:15;;;;;;;;;;;;;;;;;;5014473;28;19917;-75
2022/07/09 02:49:41;;;;;;;;;;;;;;;;;;5014564;28;19909;-75
2022/07/09 02:52:07;;;;;;;;;;;;;;;;;;5014212;28;19910;-75
2022/07/09 02:54:34;;;;;;;;;;;;;;;;;;5014283;28;20425;-75
2022/07/09 02:57:00;;;;;;;;;;;;;;;;;;5014268;28;19996;-76
2022/07/09 02:59:26;;;;;;;;;;;;;;;;;;5014343;28;20461;-75
2022/07/09 03:01:52;;;;;;;;;;;;;;;;;;5013969;28;20445;-75
2022/07/09 03:04:18;;;;;;;;;;;;;;;;;;5013731;28;19922;-75
2022/07/09 03:06:44;;;;;;;;;;;;;;;;;;5013751;28;19924;-75
2022/07/09 03:09:09;;;;;;;;;;;;;;;;;;5012859;28;19909;-75
2022/07/09 03:11:35;;;;;;;;;;;;;;;;;;5013957;28;19909;-75
2022/07/09 03:14:02;;;;;;;;;;;;;;;;;;5014132;28;19917;-75
2022/07/09 03:16:28;;;;;;;;;;;;;;;;;;5014161;28;20049;-75
2022/07/09 03:18:54;;;;;;;;;;;;;;;;;;5013406;28;19909;-74
2022/07/09 03:21:20;;;;;;;;;;;;;;;;;;5013460;28;19909;-74
2022/07/09 03:23:46;;;;;;;;;;;;;;;;;;5013551;28;19921;-75
2022/07/09 03:26:13;;;;;;;;;;;;;;;;;;5014012;28;19913;-74
2022/07/09 03:28:38;;;;;;;;;;;;;;;;;;5013782;28;19949;-75
2022/07/09 03:31:04;;;;;;;;;;;;;;;;;;5013524;28;19944;-75
2022/07/09 03:33:30;;;;;;;;;;;;;;;;;;5013991;28;19957;-75
2022/07/09 03:35:56;;;;;;;;;;;;;;;;;;5013387;28;19963;-75
2022/07/09 03:38:22;;;;;;;;;;;;;;;;;;5013659;28;19920;-75
2022/07/09 03:40:48;;;;;;;;;;;;;;;;;;5013486;28;20016;-75
2022/07/09 03:43:14;;;;;;;;;;;;;;;;;;5013503;28;19918;-75
2022/07/09 03:45:40;;;;;;;;;;;;;;;;;;5013601;28;19910;-74
2022/07/09 03:48:06;;;;;;;;;;;;;;;;;;5013560;28;20386;-74
2022/07/09 03:50:32;;;;;;;;;;;;;;;;;;5013022;28;20000;-75
2022/07/09 03:52:58;;;;;;;;;;;;;;;;;;5013336;28;20401;-74
2022/07/09 03:55:24;;;;;;;;;;;;;;;;;;5013293;28;19944;-75
2022/07/09 03:57:50;;;;;;;;;;;;;;;;;;5013146;28;19956;-75
2022/07/09 04:00:16;;;;;;;;;;;;;;;;;;5013095;28;19917;-75
2022/07/09 04:02:42;;;;;;;;;;;;;;;;;;5011864;28;20452;-75
2022/07/09 04:05:08;;;;;;;;;;;;;;;;;;5013200;28;20259;-74
2022/07/09 04:07:34;;;;;;;;;;;;;;;;;;5012575;28;19914;-75
2022/07/09 04:10:00;;;;;;;;;;;;;;;;;;5013175;28;19910;-76
2022/07/09 04:12:26;;;;;;;;;;;;;;;;;;5013272;28;19910;-76
2022/07/09 04:14:52;;;;;;;;;;;;;;;;;;5011514;28;19913;-75
2022/07/09 04:17:18;;;;;;;;;;;;;;;;;;5013051;28;20375;-75
2022/07/09 04:19:44;;;;;;;;;;;;;;;;;;5012341;28;19917;-75
2022/07/09 04:22:10;;;;;;;;;;;;;;;;;;5012908;28;20308;-74
2022/07/09 04:24:36;;;;;;;;;;;;;;;;;;5012910;28;19936;-75
2022/07/09 04:27:02;;;;;;;;;;;;;;;;;;5012320;28;19938;-75
2022/07/09 04:29:27;;;;;;;;;;;;;;;;;;5011731;28;19913;-75
2022/07/09 04:31:53;;;;;;;;;;;;;;;;;;5012941;28;19959;-75
2022/07/09 04:34:19;;;;;;;;;;;;;;;;;;5012107;28;19913;-75
2022/07/09 04:36:46;;;;;;;;;;;;;;;;;;5012621;28;19917;-76
2022/07/09 04:39:11;;;;;;;;;;;;;;;;;;5012081;28;19921;-76
2022/07/09 04:41:37;;;;;;;;;;;;;;;;;;5012628;28;19976;-74
2022/07/09 04:44:03;;;;;;;;;;;;;;;;;;5012472;28;20007;-75
2022/07/09 04:46:31;;;;;;;;;;;;;;;;;;5013022;28;19916;-75
2022/07/09 04:48:57;;;;;;;;;;;;;;;;;;5012271;28;19910;-75
2022/07/09 04:51:23;;;;;;;;;;;;;;;;;;5012448;28;20389;-75
2022/07/09 04:53:49;;;;;;;;;;;;;;;;;;5012529;28;20379;-75
2022/07/09 04:56:15;;;;;;;;;;;;;;;;;;5012937;28;19945;-76
2022/07/09 04:58:51;;;;;;;;;;;;;;;;;;5012376;28;19925;-75
2022/07/09 05:01:17;;;;;;;;;;;;;;;;;;5012482;28;19996;-75
2022/07/09 05:03:44;;;;;;;;;;;;;;;;;;5011953;28;20020;-75
2022/07/09 05:06:10;;;;;;;;;;;;;;;;;;5012502;28;20254;-76
2022/07/09 05:08:36;;;;;;;;;;;;;;;;;;5012662;28;20383;-75
2022/07/09 05:11:01;;;;;;;;;;;;;;;;;;5012256;28;19956;-75
2022/07/09 05:13:27;;;;;;;;;;;;;;;;;;5012676;28;19910;-76
2022/07/09 05:15:53;;;;;;;;;;;;;;;;;;5012287;28;19910;-75
2022/07/09 05:18:19;;;;;;;;;;;;;;;;;;5011925;28;19916;-76
2022/07/09 05:20:45;;;;;;;;;;;;;;;;;;5010962;28;20286;-75
2022/07/09 05:23:11;;;;;;;;;;;;;;;;;;5012278;28;19913;-76
2022/07/09 05:25:37;;;;;;;;;;;;;;;;;;5012404;28;19913;-75
2022/07/09 05:28:03;;;;;;;;;;;;;;;;;;5012183;28;19905;-75
2022/07/09 05:30:29;;;;;;;;;;;;;;;;;;5011665;28;19910;-76
2022/07/09 05:32:55;;;;;;;;;;;;;;;;;;5011779;28;20321;-76
2022/07/09 05:35:21;;;;;;;;;;;;;;;;;;5011996;28;19913;-75
2022/07/09 05:37:47;;;;;;;;;;;;;;;;;;5012390;28;19916;-76
2022/07/09 05:40:13;;;;;;;;;;;;;;;;;;5012632;28;19961;-76
2022/07/09 05:42:39;;;;;;;;;;;;;;;;;;5015822;28;19913;-76
2022/07/09 05:45:05;;;;;;;;;;;;;;;;;;5015752;28;19917;-75
2022/07/09 05:47:31;;;;;;;;;;;;;;;;;;5015325;28;20292;-75
2022/07/09 05:49:57;;;;;;;;;;;;;;;;;;5015502;28;19909;-76
2022/07/09 05:52:23;;;;;;;;;;;;;;;;;;5015793;28;19917;-75
2022/07/09 05:54:49;;;;;;;;;;;;;;;;;;5015468;28;20222;-76
2022/07/09 05:57:15;;;;;;;;;;;;;;;;;;5015930;28;19981;-75
2022/07/09 05:59:41;;;;;;;;;;;;;;;;;;5014810;28;19917;-75
2022/07/09 06:02:06;;;;;;;;;;;;;;;;;;5014965;28;19909;-75
2022/07/09 06:04:32;;;;;;;;;;;;;;;;;;5015279;28;19968;-75
2022/07/09 06:06:58;;;;;;;;;;;;;;;;;;5015679;28;19956;-75
2022/07/09 06:09:24;;;;;;;;;;;;;;;;;;5015005;28;19932;-75
2022/07/09 06:11:50;;;;;;;;;;;;;;;;;;5015059;28;19910;-79
2022/07/09 06:14:17;;;;;;;;;;;;;;;;;;5015157;28;19981;-80
2022/07/09 06:16:46;;;;;;;;;;;;;;;;;;5014087;28;20309;-79
2022/07/09 06:19:12;;;;;;;;;;;;;;;;;;5014798;28;19925;-80
2022/07/09 06:21:38;;;;;;;;;;;;;;;;;;5014085;28;19914;-80
2022/07/09 06:24:04;;;;;;;;;;;;;;;;;;5011180;28;19921;-79
2022/07/09 06:26:31;;;;;;;;;;;;;;;;;;4996906;28;19959;-82
2022/07/09 06:28:57;;;;;;;;;;;;;;;;;;5011249;28;20008;-80
2022/07/09 06:31:23;;;;;;;;;;;;;;;;;;5014704;28;19914;-80
2022/07/09 06:33:48;;;;;;;;;;;;;;;;;;5014637;28;19920;-81
2022/07/09 06:36:14;;;;;;;;;;;;;;;;;;5014121;28;19967;-80
2022/07/09 06:41:25;;;;;;;;;;;;;;;;;;5014872;28;20299;-81
2022/07/09 06:43:51;;;;;;;;;;;;;;;;;;5014268;28;19917;-81
2022/07/09 06:46:17;;;;;;;;;;;;;;;;;;5014603;28;19999;-82
2022/07/09 06:48:43;;;;;;;;;;;;;;;;;;5014886;28;20386;-81
2022/07/09 06:51:09;;;;;;;;;;;;;;;;;;5014508;28;19949;-85
2022/07/09 06:53:35;;;;;;;;;;;;;;;;;;5013465;28;19957;-84
2022/07/09 06:56:01;;;;;;;;;;;;;;;;;;5014926;28;19944;-85
2022/07/09 06:58:27;;;;;;;;;;;;;;;;;;5014002;28;20393;-80
2022/07/09 07:00:53;;;;;;;;;;;;;;;;;;5014325;28;20329;-81
2022/07/09 07:03:19;;;;;;;;;;;;;;;;;;5013967;28;19914;-80
2022/07/09 07:05:45;;;;;;;;;;;;;;;;;;5014288;28;19916;-80
2022/07/09 07:08:11;;;;;;;;;;;;;;;;;;5014090;28;20437;-80
2022/07/09 07:10:37;;;;;;;;;;;;;;;;;;5014212;28;20387;-80
2022/07/09 07:13:03;;;;;;;;;;;;;;;;;;5013704;28;19944;-82
2022/07/09 07:15:28;;;;;;;;;;;;;;;;;;5013432;28;20290;-83
2022/07/09 07:17:54;;;;;;;;;;;;;;;;;;5013920;28;20298;-83
2022/07/09 07:20:24;;;;;;;;;;;;;;;;;;5013951;28;19909;-82
2022/07/09 07:22:50;;;;;;;;;;;;;;;;;;5014204;28;19920;-82
2022/07/09 07:25:16;;;;;;;;;;;;;;;;;;5013958;28;19914;-82
2022/07/09 07:27:42;;;;;;;;;;;;;;;;;;5013316;28;19910;-82
2022/07/09 07:30:08;;;;;;;;;;;;;;;;;;5013684;28;19910;-82
2022/07/09 07:32:34;;;;;;;;;;;;;;;;;;5013385;28;20286;-81
2022/07/09 07:35:02;;;;;;;;;;;;;;;;;;5013901;28;20000;-83
2022/07/09 07:37:28;;;;;;;;;;;;;;;;;;5014084;28;20008;-80
2022/07/09 07:39:54;;;;;;;;;;;;;;;;;;5012656;28;20394;-85
2022/07/09 07:42:20;;;;;;;;;;;;;;;;;;5013444;28;19925;-86
2022/07/09 07:44:46;;;;;;;;;;;;;;;;;;5013600;28;19941;-86
2022/07/09 07:47:12;;;;;;;;;;;;;;;;;;5000513;28;19921;-86
2022/07/09 07:49:38;;;;;;;;;;;;;;;;;;5004184;28;20306;-86
2022/07/09 07:52:04;;;;;;;;;;;;;;;;;;5011548;28;20340;-86
2022/07/09 07:54:30;;;;;;;;;;;;;;;;;;5011224;28;19910;-87
2022/07/09 07:56:56;;;;;;;;;;;;;;;;;;5009783;28;20388;-86
2022/07/09 07:59:22;;;;;;;;;;;;;;;;;;5011442;28;19917;-86
2022/07/09 08:01:48;;;;;;;;;;;;;;;;;;5010755;28;19909;-87
2022/07/09 08:04:14;;;;;;;;;;;;;;;;;;5009876;28;20008;-87
2022/07/09 08:06:39;;;;;;;;;;;;;;;;;;5010897;28;19913;-87
2022/07/09 08:09:05;;;;;;;;;;;;;;;;;;5010271;28;19913;-87
2022/07/09 08:11:31;;;;;;;;;;;;;;;;;;5009982;28;19948;-87
2022/07/09 08:13:57;;;;;;;;;;;;;;;;;;5010356;28;20355;-87
2022/07/09 08:16:23;;;;;;;;;;;;;;;;;;5010467;28;19913;-88
2022/07/09 08:18:49;;;;;;;;;;;;;;;;;;5010000;28;19916;-87
2022/07/09 08:21:15;;;;;;;;;;;;;;;;;;5009760;28;19940;-80
2022/07/09 08:23:56;;;;;;;;;;;;;;;;;;5010011;28;19921;-81
2022/07/09 08:26:22;;;;;;;;;;;;;;;;;;5010066;28;19924;-79
2022/07/09 08:28:48;;;;;;;;;;;;;;;;;;5010048;28;19913;-82
2022/07/09 08:31:14;;;;;;;;;;;;;;;;;;5009906;28;20047;-82
2022/07/09 08:33:41;;;;;;;;;;;;;;;;;;5009536;28;19914;-81
2022/07/09 08:36:06;;;;;;;;;;;;;;;;;;5009818;28;20454;-82
2022/07/09 08:38:32;;;;;;;;;;;;;;;;;;5009723;28;19968;-80
2022/07/09 08:40:58;;;;;;;;;;;;;;;;;;5009586;28;19948;-81
2022/07/09 08:43:24;;;;;;;;;;;;;;;;;;5006813;28;19929;-81
2022/07/09 08:45:50;;;;;;;;;;;;;;;;;;5009445;28;19914;-81
2022/07/09 08:48:18;;;;;;;;;;;;;;;;;;5009616;28;19918;-80
2022/07/09 08:50:44;;;;;;;;;;;;;;;;;;5009576;28;20264;-80
2022/07/09 08:53:10;;;;;;;;;;;;;;;;;;5009780;28;20027;-81
2022/07/09 08:55:36;;;;;;;;;;;;;;;;;;5009217;28;20016;-81
2022/07/09 08:58:02;;;;;;;;;;;;;;;;;;5009342;28;19933;-82
2022/07/09 09:00:28;;;;;;;;;;;;;;;;;;5009664;28;19914;-82
2022/07/09 09:02:54;;;;;;;;;;;;;;;;;;5009501;28;19928;-81
2022/07/09 09:05:20;;;;;;;;;;;;;;;;;;5009527;28;20004;-87
2022/07/09 09:07:46;;;;;;;;;;;;;;;;;;5009418;28;20024;-85
2022/07/09 09:10:12;;;;;;;;;;;;;;;;;;5008186;28;19921;-83
2022/07/09 09:12:38;;;;;;;;;;;;;;;;;;5009073;28;20374;-86
2022/07/09 09:15:04;;;;;;;;;;;;;;;;;;5009446;28;19909;-88
2022/07/09 09:17:30;;;;;;;;;;;;;;;;;;5013145;28;19913;-86
2022/07/09 09:19:56;;;;;;;;;;;;;;;;;;5012965;28;20378;-85
2022/07/09 09:22:22;;;;;;;;;;;;;;;;;;5013075;28;19920;-79
2022/07/09 09:24:48;;;;;;;;;;;;;;;;;;5012829;28;19917;-79
2022/07/09 09:27:14;;;;;;;;;;;;;;;;;;5013193;28;20267;-75
2022/07/09 09:29:40;;;;;;;;;;;;;;;;;;5013048;28;20378;-82
2022/07/09 09:32:06;;;;;;;;;;;;;;;;;;5013104;28;20377;-80
2022/07/09 09:34:32;;;;;;;;;;;;;;;;;;5012450;28;19967;-81
2022/07/09 09:36:59;;;;;;;;;;;;;;;;;;5012936;28;19917;-79
2022/07/09 09:39:25;;;;;;;;;;;;;;;;;;5012590;28;19909;-78
2022/07/09 09:41:51;;;;;;;;;;;;;;;;;;5013061;28;19918;-80
2022/07/09 09:44:17;;;;;;;;;;;;;;;;;;5010597;28;19924;-80
2022/07/09 09:46:43;;;;;;;;;;;;;;;;;;5012738;28;19909;-80
2022/07/09 09:49:09;;;;;;;;;;;;;;;;;;5013116;28;20294;-80
2022/07/09 09:51:36;;;;;;;;;;;;;;;;;;5012869;28;19914;-82
2022/07/09 09:54:02;;;;;;;;;;;;;;;;;;5012543;28;19958;-82
2022/07/09 09:56:28;;;;;;;;;;;;;;;;;;5010773;28;19918;-83
2022/07/09 09:58:55;;;;;;;;;;;;;;;;;;5012406;28;19914;-82
2022/07/09 10:01:21;;;;;;;;;;;;;;;;;;5011253;28;19913;-82
2022/07/09 10:03:46;;;;;;;;;;;;;;;;;;5012871;28;19924;-83
2022/07/09 10:06:12;;;;;;;;;;;;;;;;;;5014402;28;19914;-82
2022/07/09 10:08:38;;;;;;;;;;;;;;;;;;5013798;28;20283;-81
2022/07/09 10:11:05;;;;;;;;;;;;;;;;;;5014582;28;19910;-77
2022/07/09 10:13:31;;;;;;;;;;;;;;;;;;5014687;28;19956;-79
2022/07/09 10:15:57;;;;;;;;;;;;;;;;;;5013405;28;19914;-77
2022/07/09 10:18:23;;;;;;;;;;;;;;;;;;5014800;28;19913;-81
2022/07/09 10:20:49;;;;;;;;;;;;;;;;;;5015485;28;19909;-79
2022/07/09 10:23:15;;;;;;;;;;;;;;;;;;5014168;28;19917;-79
2022/07/09 10:25:41;;;;;;;;;;;;;;;;;;5014638;28;20294;-80
2022/07/09 10:28:07;;;;;;;;;;;;;;;;;;5012865;28;20369;-80
2022/07/09 10:30:35;;;;;;;;;;;;;;;;;;5014784;28;19914;-82
2022/07/09 10:33:00;;;;;;;;;;;;;;;;;;5014092;28;19960;-83
2022/07/09 10:35:26;;;;;;;;;;;;;;;;;;5015006;28;19910;-85
2022/07/09 10:37:52;;;;;;;;;;;;;;;;;;5013839;28;20282;-80
2022/07/09 10:40:18;;;;;;;;;;;;;;;;;;5014488;28;20342;-81
2022/07/09 10:42:44;;;;;;;;;;;;;;;;;;5014772;28;19952;-80
2022/07/09 10:45:10;;;;;;;;;;;;;;;;;;5014150;28;19920;-79
2022/07/09 10:47:36;;;;;;;;;;;;;;;;;;5013973;28;19960;-82
2022/07/09 10:50:02;;;;;;;;;;;;;;;;;;5013431;28;19937;-80
2022/07/09 10:52:28;;;;;;;;;;;;;;;;;;5013992;28;19913;-83
2022/07/09 10:54:55;;;;;;;;;;;;;;;;;;5014736;28;19909;-83
2022/07/09 10:57:21;;;;;;;;;;;;;;;;;;4994662;28;19913;-83
2022/07/09 10:59:47;;;;;;;;;;;;;;;;;;4994547;28;19919;-83
2022/07/09 11:02:13;;;;;;;;;;;;;;;;;;5010835;28;20267;-78
2022/07/09 11:04:39;;;;;;;;;;;;;;;;;;5013224;28;19927;-80
2022/07/09 11:07:05;;;;;;;;;;;;;;;;;;5013118;28;20301;-83
2022/07/09 11:09:31;;;;;;;;;;;;;;;;;;5013803;28;19913;-79
2022/07/09 11:11:57;;;;;;;;;;;;;;;;;;5014291;28;20430;-82
2022/07/09 11:14:23;;;;;;;;;;;;;;;;;;5013536;28;20264;-81
2022/07/09 11:16:49;;;;;;;;;;;;;;;;;;5013023;28;19985;-83
2022/07/09 11:19:15;;;;;;;;;;;;;;;;;;5012974;28;20004;-77
2022/07/09 11:21:41;;;;;;;;;;;;;;;;;;5012967;28;19914;-79
2022/07/09 11:24:07;;;;;;;;;;;;;;;;;;5013552;28;19918;-79
2022/07/09 11:26:32;;;;;;;;;;;;;;;;;;5013922;28;19968;-80
2022/07/09 11:28:58;;;;;;;;;;;;;;;;;;5013354;28;19963;-78
2022/07/09 11:31:24;;;;;;;;;;;;;;;;;;5013507;28;19909;-80
2022/07/09 11:36:35;;;;;;;;;;;;;;;;;;5013511;28;19916;-79
2022/07/09 11:39:00;;;;;;;;;;;;;;;;;;5013133;28;19997;-80
2022/07/09 11:41:26;;;;;;;;;;;;;;;;;;5013151;28;20012;-81
2022/07/09 11:43:52;;;;;;;;;;;;;;;;;;5013241;28;20028;-79
2022/07/09 11:46:18;;;;;;;;;;;;;;;;;;5013172;28;20338;-79
2022/07/09 11:48:44;;;;;;;;;;;;;;;;;;5013328;28;19943;-78
2022/07/09 11:51:10;;;;;;;;;;;;;;;;;;5013043;28;19941;-79
2022/07/09 11:53:36;;;;;;;;;;;;;;;;;;5013255;28;19956;-78
2022/07/09 11:56:03;;;;;;;;;;;;;;;;;;5012569;28;19952;-81
2022/07/09 11:58:29;;;;;;;;;;;;;;;;;;5012611;28;19909;-80
2022/07/09 12:00:55;;;;;;;;;;;;;;;;;;5012792;28;20040;-79
2022/07/09 12:03:21;;;;;;;;;;;;;;;;;;5012620;28;20432;-80
2022/07/09 12:05:47;;;;;;;;;;;;;;;;;;5012407;28;19920;-83
2022/07/09 12:08:13;;;;;;;;;;;;;;;;;;5013073;28;19910;-84
2022/07/09 12:10:39;;;;;;;;;;;;;;;;;;5012151;28;20374;-79
2022/07/09 12:13:05;;;;;;;;;;;;;;;;;;5010290;28;20425;-83
2022/07/09 12:15:31;;;;;;;;;;;;;;;;;;5012089;28;19959;-79
2022/07/09 12:17:57;;;;;;;;;;;;;;;;;;5012491;28;19959;-84
2022/07/09 12:20:23;;;;;;;;;;;;;;;;;;5019758;28;19917;-80
2022/07/09 12:22:49;;;;;;;;;;;;;;;;;;5013589;28;19922;-80
2022/07/09 12:25:15;;;;;;;;;;;;;;;;;;5022352;28;19917;-79
2022/07/09 12:27:41;;;;;;;;;;;;;;;;;;5013081;28;20038;-79
2022/07/09 12:30:07;;;;;;;;;;;;;;;;;;5008794;28;19914;-79
2022/07/09 12:32:34;;;;;;;;;;;;;;;;;;5009142;28;19988;-79
2022/07/09 12:35:00;;;;;;;;;;;;;;;;;;5011435;28;19964;-79
2022/07/09 12:37:26;;;;;;;;;;;;;;;;;;5012332;28;20390;-78
2022/07/09 12:39:53;;;;;;;;;;;;;;;;;;5008371;28;20170;-79
2022/07/09 12:42:19;;;;;;;;;;;;;;;;;;5010197;28;20436;-79
2022/07/09 12:44:45;;;;;;;;;;;;;;;;;;4994287;28;19921;-79
2022/07/09 12:47:11;;;;;;;;;;;;;;;;;;5012070;28;19913;-79
2022/07/09 12:49:37;;;;;;;;;;;;;;;;;;5009161;28;20286;-76
2022/07/09 12:52:03;;;;;;;;;;;;;;;;;;5007166;28;19967;-79
2022/07/09 12:54:29;;;;;;;;;;;;;;;;;;5009984;28;19937;-80
2022/07/09 12:56:55;;;;;;;;;;;;;;;;;;5010440;28;20402;-78
2022/07/09 12:59:21;;;;;;;;;;;;;;;;;;5009351;28;20160;-78
2022/07/09 13:01:47;;;;;;;;;;;;;;;;;;5009666;28;19913;-79
2022/07/09 13:04:13;;;;;;;;;;;;;;;;;;5010860;28;19928;-78
2022/07/09 13:06:39;;;;;;;;;;;;;;;;;;5011779;28;20000;-79
2022/07/09 13:09:05;;;;;;;;;;;;;;;;;;5007509;28;19913;-79
2022/07/09 13:11:31;;;;;;;;;;;;;;;;;;5011863;28;19996;-79
2022/07/09 13:13:57;;;;;;;;;;;;;;;;;;5010542;28;20012;-79
2022/07/09 13:16:23;;;;;;;;;;;;;;;;;;5010028;28;20016;-78
2022/07/09 13:18:51;;;;;;;;;;;;;;;;;;5009148;28;19941;-79
2022/07/09 13:21:17;;;;;;;;;;;;;;;;;;5009255;28;19917;-78
2022/07/09 13:23:43;;;;;;;;;;;;;;;;;;5010183;28;19932;-83
2022/07/09 13:26:08;;;;;;;;;;;;;;;;;;5012025;28;19910;-79
2022/07/09 13:28:34;;;;;;;;;;;;;;;;;;5008978;28;19917;-79
2022/07/09 13:31:00;;;;;;;;;;;;;;;;;;5011173;28;20333;-79
2022/07/09 13:33:26;;;;;;;;;;;;;;;;;;5010257;28;20333;-80
2022/07/09 13:35:52;;;;;;;;;;;;;;;;;;5011831;28;20469;-79
2022/07/09 13:38:19;;;;;;;;;;;;;;;;;;5007828;28;19955;-80
2022/07/09 13:40:44;;;;;;;;;;;;;;;;;;5011550;28;19948;-79
2022/07/09 13:43:10;;;;;;;;;;;;;;;;;;5011885;28;19960;-79
2022/07/09 13:45:36;;;;;;;;;;;;;;;;;;5006569;28;19976;-79
2022/07/09 13:48:02;;;;;;;;;;;;;;;;;;5009469;28;20278;-79
2022/07/09 13:50:28;;;;;;;;;;;;;;;;;;5011762;28;20047;-80
2022/07/09 13:52:54;;;;;;;;;;;;;;;;;;5010110;28;19980;-79
2022/07/09 13:55:20;;;;;;;;;;;;;;;;;;5008663;28;20481;-79
2022/07/09 13:57:46;;;;;;;;;;;;;;;;;;5010154;28;20008;-80
2022/07/09 14:00:12;;;;;;;;;;;;;;;;;;5010687;28;19944;-80
2022/07/09 14:02:38;;;;;;;;;;;;;;;;;;5010363;28;19917;-79
2022/07/09 14:05:04;;;;;;;;;;;;;;;;;;5012539;28;19921;-79
2022/07/09 14:07:30;;;;;;;;;;;;;;;;;;5014915;28;19910;-76
2022/07/09 14:09:56;;;;;;;;;;;;;;;;;;5011754;28;20333;-79
2022/07/09 14:12:23;;;;;;;;;;;;;;;;;;5015304;28;19910;-76
2022/07/09 14:14:49;;;;;;;;;;;;;;;;;;5013198;28;19913;-82
2022/07/09 14:17:15;;;;;;;;;;;;;;;;;;5012556;28;20289;-79
2022/07/09 14:19:41;;;;;;;;;;;;;;;;;;5013536;28;19921;-78
2022/07/09 14:22:07;;;;;;;;;;;;;;;;;;5011281;28;19914;-84
2022/07/09 14:24:33;;;;;;;;;;;;;;;;;;5013970;28;20005;-74
2022/07/09 14:26:59;;;;;;;;;;;;;;;;;;5014875;28;19995;-79
2022/07/09 14:29:25;;;;;;;;;;;;;;;;;;5011869;28;19913;-86
2022/07/09 14:31:51;;;;;;;;;;;;;;;;;;5011240;28;19937;-81
2022/07/09 14:34:17;;;;;;;;;;;;;;;;;;5015033;28;20314;-87
2022/07/09 14:36:43;;;;;;;;;;;;;;;;;;5014201;28;20275;-82
2022/07/09 14:39:09;;;;;;;;;;;;;;;;;;5012587;28;19913;-78
2022/07/09 14:41:35;;;;;;;;;;;;;;;;;;5013564;28;19929;-77
2022/07/09 14:44:01;;;;;;;;;;;;;;;;;;5008270;28;19937;-81
2022/07/09 14:46:27;;;;;;;;;;;;;;;;;;5010009;28;19913;-79
2022/07/09 14:48:53;;;;;;;;;;;;;;;;;;5012626;28;20061;-82
2022/07/09 14:51:19;;;;;;;;;;;;;;;;;;5009807;28;19925;-73
2022/07/09 14:53:45;;;;;;;;;;;;;;;;;;5011282;28;19921;-78
2022/07/09 14:56:11;;;;;;;;;;;;;;;;;;5011974;28;20294;-87
2022/07/09 14:58:37;;;;;;;;;;;;;;;;;;5010018;28;20370;-78
2022/07/09 15:01:03;;;;;;;;;;;;;;;;;;5009408;28;20290;-72
2022/07/09 15:03:29;;;;;;;;;;;;;;;;;;5009694;28;21318;-80
2022/07/09 15:05:54;;;;;;;;;;;;;;;;;;5008986;28;19913;-81
2022/07/09 15:08:20;;;;;;;;;;;;;;;;;;5009705;28;20382;-78
2022/07/09 15:10:46;;;;;;;;;;;;;;;;;;5008333;28;20358;-79
2022/07/09 15:13:12;;;;;;;;;;;;;;;;;;5011463;28;19975;-80
2022/07/09 15:15:38;;;;;;;;;;;;;;;;;;5012375;28;20278;-80
2022/07/09 15:18:04;;;;;;;;;;;;;;;;;;5011054;28;19914;-72
2022/07/09 15:20:30;;;;;;;;;;;;;;;;;;5012617;28;20343;-72
2022/07/09 15:22:56;;;;;;;;;;;;;;;;;;5014084;28;20374;-72
2022/07/09 15:25:22;;;;;;;;;;;;;;;;;;5013864;28;19913;-72
2022/07/09 15:27:48;;;;;;;;;;;;;;;;;;5013785;28;20344;-72
2022/07/09 15:30:15;;;;;;;;;;;;;;;;;;5013885;28;20382;-72
2022/07/09 15:32:41;;;;;;;;;;;;;;;;;;5013604;28;19920;-73
2022/07/09 15:35:06;;;;;;;;;;;;;;;;;;5013946;28;19909;-73
2022/07/09 15:37:32;;;;;;;;;;;;;;;;;;5013646;28;19917;-72
2022/07/09 15:39:58;;;;;;;;;;;;;;;;;;5013420;28;19964;-72
2022/07/09 15:42:24;;;;;;;;;;;;;;;;;;5013557;28;20000;-72
2022/07/09 15:44:50;;;;;;;;;;;;;;;;;;5014090;28;19949;-72
2022/07/09 15:47:17;;;;;;;;;;;;;;;;;;5013413;28;20359;-73
2022/07/09 15:49:43;;;;;;;;;;;;;;;;;;5013463;28;19920;-72
2022/07/09 15:52:08;;;;;;;;;;;;;;;;;;5013485;28;20299;-72
2022/07/09 15:54:34;;;;;;;;;;;;;;;;;;5013543;28;20003;-72
2022/07/09 15:57:00;;;;;;;;;;;;;;;;;;5012863;28;20004;-73
2022/07/09 15:59:27;;;;;;;;;;;;;;;;;;5013270;28;19963;-72
2022/07/09 16:01:53;;;;;;;;;;;;;;;;;;5013075;28;19913;-72
2022/07/09 16:04:19;;;;;;;;;;;;;;;;;;5012998;28;20429;-73
2022/07/09 16:06:45;;;;;;;;;;;;;;;;;;5012149;28;19910;-73
2022/07/09 16:09:11;;;;;;;;;;;;;;;;;;5013268;28;19909;-73
2022/07/09 16:14:21;;;;;;;;;;;;;;;;;;5012709;28;19921;-73
2022/07/09 16:16:47;;;;;;;;;;;;;;;;;;5013101;28;19909;-72
2022/07/09 16:19:13;;;;;;;;;;;;;;;;;;5012760;28;19913;-73
2022/07/09 16:21:39;;;;;;;;;;;;;;;;;;5013136;28;20290;-72
2022/07/09 16:24:05;;;;;;;;;;;;;;;;;;5012588;28;20321;-72
2022/07/09 16:26:31;;;;;;;;;;;;;;;;;;5012853;28;20339;-72
2022/07/09 16:28:57;;;;;;;;;;;;;;;;;;5012746;28;20289;-73
2022/07/09 16:31:23;;;;;;;;;;;;;;;;;;5013085;28;19917;-72
2022/07/09 16:33:49;;;;;;;;;;;;;;;;;;5012669;28;19913;-72
2022/07/09 16:36:15;;;;;;;;;;;;;;;;;;5013129;28;19917;-73
2022/07/09 16:38:41;;;;;;;;;;;;;;;;;;5012554;28;19917;-72
2022/07/09 16:41:07;;;;;;;;;;;;;;;;;;5012531;28;20295;-72
2022/07/09 16:43:33;;;;;;;;;;;;;;;;;;5013151;28;19922;-72
2022/07/09 16:46:08;;;;;;;;;;;;;;;;;;5012743;28;19909;-72